sensor_id;sensor_type;location;lat;lon;timestamp;temperature;humidity
46438;DHT22;32137;48.728;9.142;2023-09-12T00:01:28;21.30;99.90
46438;DHT22;32137;48.728;9.142;2023-09-12T00:03:58;21.30;99.90
46438;DHT22;32137;48.728;9.142;2023-09-12T00:06:23;21.30;99.90
46438;DHT22;32137;48.728;9.142;2023-09-12T00:08:48;21.30;99.90
46438;DHT22;32137;48.728;9.142;2023-09-12T00:11:14;21.30;99.90
46438;DHT22;32137;48.728;9.142;2023-09-12T00:13:40;21.30;99.90
46438;DHT22;32137;48.728;9.142;2023-09-12T00:16:06;21.30;99.90
46438;DHT22;32137;48.728;9.142;2023-09-12T00:18:31;21.30;99.90
46438;DHT22;32137;48.728;9.142;2023-09-12T00:20:59;21.30;99.90
46438;DHT22;32137;48.728;9.142;2023-09-12T00:23:26;21.20;99.90
46438;DHT22;32137;48.728;9.142;2023-09-12T00:25:51;21.30;99.90
46438;DHT22;32137;48.728;9.142;2023-09-12T00:28:17;21.20;99.90
46438;DHT22;32137;48.728;9.142;2023-09-12T00:30:43;21.10;99.90
46438;DHT22;32137;48.728;9.142;2023-09-12T00:33:08;21.00;99.90
46438;DHT22;32137;48.728;9.142;2023-09-12T00:35:34;21.00;99.90
46438;DHT22;32137;48.728;9.142;2023-09-12T00:37:59;20.90;99.90
46438;DHT22;32137;48.728;9.142;2023-09-12T00:40:25;20.80;99.90
46438;DHT22;32137;48.728;9.142;2023-09-12T00:42:50;20.80;99.90
46438;DHT22;32137;48.728;9.142;2023-09-12T00:45:16;20.80;99.90
46438;DHT22;32137;48.728;9.142;2023-09-12T00:47:41;20.80;99.90
46438;DHT22;32137;48.728;9.142;2023-09-12T00:50:07;20.80;99.90
46438;DHT22;32137;48.728;9.142;2023-09-12T00:52:33;20.80;99.90
46438;DHT22;32137;48.728;9.142;2023-09-12T00:54:59;20.70;99.90
46438;DHT22;32137;48.728;9.142;2023-09-12T00:57:25;20.70;99.90
46438;DHT22;32137;48.728;9.142;2023-09-12T00:59:51;20.70;99.90
46438;DHT22;32137;48.728;9.142;2023-09-12T01:02:18;20.60;99.90
46438;DHT22;32137;48.728;9.142;2023-09-12T01:04:43;20.60;99.90
46438;DHT22;32137;48.728;9.142;2023-09-12T01:07:09;20.60;99.90
46438;DHT22;32137;48.728;9.142;2023-09-12T01:09:34;20.50;99.90
46438;DHT22;32137;48.728;9.142;2023-09-12T01:12:00;20.60;99.90
46438;DHT22;32137;48.728;9.142;2023-09-12T01:14:28;20.60;99.90
46438;DHT22;32137;48.728;9.142;2023-09-12T01:16:53;20.60;99.90
46438;DHT22;32137;48.728;9.142;2023-09-12T01:19:19;20.60;99.90
46438;DHT22;32137;48.728;9.142;2023-09-12T01:29:30;20.40;99.90
46438;DHT22;32137;48.728;9.142;2023-09-12T01:31:56;20.40;99.90
46438;DHT22;32137;48.728;9.142;2023-09-12T01:34:22;20.30;99.90
46438;DHT22;32137;48.728;9.142;2023-09-12T01:36:47;20.30;99.90
46438;DHT22;32137;48.728;9.142;2023-09-12T01:39:13;20.20;99.90
46438;DHT22;32137;48.728;9.142;2023-09-12T01:41:39;20.20;99.90
46438;DHT22;32137;48.728;9.142;2023-09-12T01:44:05;20.20;99.90
46438;DHT22;32137;48.728;9.142;2023-09-12T01:46:31;20.20;99.90
46438;DHT22;32137;48.728;9.142;2023-09-12T01:48:57;20.10;99.90
46438;DHT22;32137;48.728;9.142;2023-09-12T01:51:23;20.10;99.90
46438;DHT22;32137;48.728;9.142;2023-09-12T01:53:49;20.00;99.90
46438;DHT22;32137;48.728;9.142;2023-09-12T01:56:15;20.00;99.90
46438;DHT22;32137;48.728;9.142;2023-09-12T01:58:40;20.10;99.90
46438;DHT22;32137;48.728;9.142;2023-09-12T02:01:06;20.10;99.90
46438;DHT22;32137;48.728;9.142;2023-09-12T02:03:31;20.10;99.90
46438;DHT22;32137;48.728;9.142;2023-09-12T02:05:57;20.10;99.90
46438;DHT22;32137;48.728;9.142;2023-09-12T02:08:22;20.10;99.90
46438;DHT22;32137;48.728;9.142;2023-09-12T02:10:48;20.00;99.90
46438;DHT22;32137;48.728;9.142;2023-09-12T02:13:13;20.10;99.90
46438;DHT22;32137;48.728;9.142;2023-09-12T02:15:39;20.00;99.90
46438;DHT22;32137;48.728;9.142;2023-09-12T02:18:04;20.00;99.90
46438;DHT22;32137;48.728;9.142;2023-09-12T02:20:31;19.90;1.00
46438;DHT22;32137;48.728;9.142;2023-09-12T02:22:56;19.90;1.00
46438;DHT22;32137;48.728;9.142;2023-09-12T02:25:22;19.90;1.00
46438;DHT22;32137;48.728;9.142;2023-09-12T02:27:47;19.80;1.00
46438;DHT22;32137;48.728;9.142;2023-09-12T02:30:13;19.80;1.00
46438;DHT22;32137;48.728;9.142;2023-09-12T02:32:38;19.80;1.00
46438;DHT22;32137;48.728;9.142;2023-09-12T02:35:04;19.70;1.00
46438;DHT22;32137;48.728;9.142;2023-09-12T02:37:29;19.70;1.00
46438;DHT22;32137;48.728;9.142;2023-09-12T02:39:55;19.70;1.00
46438;DHT22;32137;48.728;9.142;2023-09-12T02:42:20;19.60;1.00
46438;DHT22;32137;48.728;9.142;2023-09-12T02:44:46;19.60;1.00
46438;DHT22;32137;48.728;9.142;2023-09-12T02:47:13;19.60;1.00
46438;DHT22;32137;48.728;9.142;2023-09-12T02:49:38;19.50;1.00
46438;DHT22;32137;48.728;9.142;2023-09-12T02:52:03;19.50;1.00
46438;DHT22;32137;48.728;9.142;2023-09-12T02:54:29;19.50;1.00
46438;DHT22;32137;48.728;9.142;2023-09-12T02:56:54;19.50;1.00
46438;DHT22;32137;48.728;9.142;2023-09-12T02:59:20;19.40;1.00
46438;DHT22;32137;48.728;9.142;2023-09-12T03:01:46;19.40;1.00
46438;DHT22;32137;48.728;9.142;2023-09-12T03:04:11;19.40;1.00
46438;DHT22;32137;48.728;9.142;2023-09-12T03:06:36;19.30;1.00
46438;DHT22;32137;48.728;9.142;2023-09-12T03:09:02;19.30;1.00
46438;DHT22;32137;48.728;9.142;2023-09-12T03:11:28;19.30;1.00
46438;DHT22;32137;48.728;9.142;2023-09-12T03:13:55;19.30;1.00
46438;DHT22;32137;48.728;9.142;2023-09-12T03:16:20;19.20;1.00
46438;DHT22;32137;48.728;9.142;2023-09-12T03:18:46;19.30;1.00
46438;DHT22;32137;48.728;9.142;2023-09-12T03:21:11;19.20;1.00
46438;DHT22;32137;48.728;9.142;2023-09-12T03:23:37;19.20;1.00
46438;DHT22;32137;48.728;9.142;2023-09-12T03:26:02;19.20;1.00
46438;DHT22;32137;48.728;9.142;2023-09-12T03:28:29;19.20;3.50
46438;DHT22;32137;48.728;9.142;2023-09-12T03:31:02;19.10;16.50
46438;DHT22;32137;48.728;9.142;2023-09-12T03:33:28;19.10;10.00
46438;DHT22;32137;48.728;9.142;2023-09-12T03:35:53;19.10;8.60
46438;DHT22;32137;48.728;9.142;2023-09-12T03:38:19;19.00;27.80
46438;DHT22;32137;48.728;9.142;2023-09-12T03:40:45;19.00;36.90
46438;DHT22;32137;48.728;9.142;2023-09-12T03:43:10;18.90;52.20
46438;DHT22;32137;48.728;9.142;2023-09-12T03:45:35;19.00;30.20
46438;DHT22;32137;48.728;9.142;2023-09-12T03:48:01;19.00;31.00
46438;DHT22;32137;48.728;9.142;2023-09-12T03:50:26;19.10;47.20
46438;DHT22;32137;48.728;9.142;2023-09-12T03:52:52;19.10;28.90
46438;DHT22;32137;48.728;9.142;2023-09-12T03:55:17;19.10;33.20
46438;DHT22;32137;48.728;9.142;2023-09-12T03:57:43;19.10;32.90
46438;DHT22;32137;48.728;9.142;2023-09-12T04:00:08;19.10;55.00
46438;DHT22;32137;48.728;9.142;2023-09-12T04:02:34;19.10;12.30
46438;DHT22;32137;48.728;9.142;2023-09-12T04:04:59;19.10;11.40
46438;DHT22;32137;48.728;9.142;2023-09-12T04:07:25;19.00;46.50
46438;DHT22;32137;48.728;9.142;2023-09-12T04:09:50;19.10;48.30
46438;DHT22;32137;48.728;9.142;2023-09-12T04:12:16;19.10;49.60
46438;DHT22;32137;48.728;9.142;2023-09-12T04:14:41;19.10;34.90
46438;DHT22;32137;48.728;9.142;2023-09-12T04:17:06;19.00;53.90
46438;DHT22;32137;48.728;9.142;2023-09-12T04:19:33;19.00;87.10
46438;DHT22;32137;48.728;9.142;2023-09-12T04:21:58;18.90;91.00
46438;DHT22;32137;48.728;9.142;2023-09-12T04:24:25;18.90;96.60
46438;DHT22;32137;48.728;9.142;2023-09-12T04:26:50;18.90;76.60
46438;DHT22;32137;48.728;9.142;2023-09-12T04:29:16;18.90;95.40
46438;DHT22;32137;48.728;9.142;2023-09-12T04:31:41;18.80;93.20
46438;DHT22;32137;48.728;9.142;2023-09-12T04:34:06;18.80;98.60
46438;DHT22;32137;48.728;9.142;2023-09-12T04:36:32;18.80;92.10
46438;DHT22;32137;48.728;9.142;2023-09-12T04:38:57;18.80;85.70
46438;DHT22;32137;48.728;9.142;2023-09-12T04:41:23;18.80;90.20
46438;DHT22;32137;48.728;9.142;2023-09-12T04:43:48;18.80;80.00
46438;DHT22;32137;48.728;9.142;2023-09-12T04:46:14;18.80;83.50
46438;DHT22;32137;48.728;9.142;2023-09-12T04:48:40;18.70;89.30
46438;DHT22;32137;48.728;9.142;2023-09-12T04:51:05;18.80;84.30
46438;DHT22;32137;48.728;9.142;2023-09-12T04:53:30;18.80;87.20
46438;DHT22;32137;48.728;9.142;2023-09-12T04:56:00;18.80;94.90
46438;DHT22;32137;48.728;9.142;2023-09-12T04:58:26;18.80;97.00
46438;DHT22;32137;48.728;9.142;2023-09-12T05:00:51;18.80;91.30
46438;DHT22;32137;48.728;9.142;2023-09-12T05:03:17;18.80;86.30
46438;DHT22;32137;48.728;9.142;2023-09-12T05:05:45;18.80;95.40
46438;DHT22;32137;48.728;9.142;2023-09-12T05:08:10;18.80;95.70
46438;DHT22;32137;48.728;9.142;2023-09-12T05:10:38;18.80;99.60
46438;DHT22;32137;48.728;9.142;2023-09-12T05:13:04;18.80;99.90
46438;DHT22;32137;48.728;9.142;2023-09-12T05:15:30;18.90;99.90
46438;DHT22;32137;48.728;9.142;2023-09-12T05:17:55;18.80;99.90
46438;DHT22;32137;48.728;9.142;2023-09-12T05:20:21;18.90;99.90
46438;DHT22;32137;48.728;9.142;2023-09-12T05:22:46;18.80;99.90
46438;DHT22;32137;48.728;9.142;2023-09-12T05:25:11;18.80;99.90
46438;DHT22;32137;48.728;9.142;2023-09-12T05:27:37;18.80;99.90
46438;DHT22;32137;48.728;9.142;2023-09-12T05:30:03;18.80;99.90
46438;DHT22;32137;48.728;9.142;2023-09-12T05:32:28;18.80;99.90
46438;DHT22;32137;48.728;9.142;2023-09-12T05:34:54;18.90;99.90
46438;DHT22;32137;48.728;9.142;2023-09-12T05:37:19;18.90;99.90
46438;DHT22;32137;48.728;9.142;2023-09-12T05:39:46;19.00;99.90
46438;DHT22;32137;48.728;9.142;2023-09-12T05:42:11;19.00;99.90
46438;DHT22;32137;48.728;9.142;2023-09-12T05:44:37;19.10;99.90
46438;DHT22;32137;48.728;9.142;2023-09-12T05:47:03;19.10;90.30
46438;DHT22;32137;48.728;9.142;2023-09-12T05:49:28;19.20;76.00
46438;DHT22;32137;48.728;9.142;2023-09-12T05:51:54;19.20;53.70
46438;DHT22;32137;48.728;9.142;2023-09-12T05:54:19;19.30;42.70
46438;DHT22;32137;48.728;9.142;2023-09-12T05:56:45;19.40;23.30
46438;DHT22;32137;48.728;9.142;2023-09-12T05:59:10;19.40;27.90
46438;DHT22;32137;48.728;9.142;2023-09-12T06:01:36;19.50;14.40
46438;DHT22;32137;48.728;9.142;2023-09-12T06:04:01;19.50;7.00
46438;DHT22;32137;48.728;9.142;2023-09-12T06:06:27;19.50;1.00
46438;DHT22;32137;48.728;9.142;2023-09-12T06:08:53;19.60;1.00
46438;DHT22;32137;48.728;9.142;2023-09-12T06:11:19;19.60;1.00
46438;DHT22;32137;48.728;9.142;2023-09-12T06:13:44;19.60;1.00
46438;DHT22;32137;48.728;9.142;2023-09-12T06:16:10;19.70;1.00
46438;DHT22;32137;48.728;9.142;2023-09-12T06:18:35;19.70;1.00
46438;DHT22;32137;48.728;9.142;2023-09-12T06:21:01;19.80;1.00
46438;DHT22;32137;48.728;9.142;2023-09-12T06:23:31;19.80;1.00
46438;DHT22;32137;48.728;9.142;2023-09-12T06:25:57;19.80;1.00
46438;DHT22;32137;48.728;9.142;2023-09-12T06:28:26;19.90;1.00
46438;DHT22;32137;48.728;9.142;2023-09-12T06:30:51;20.00;1.00
46438;DHT22;32137;48.728;9.142;2023-09-12T06:33:17;20.00;1.00
46438;DHT22;32137;48.728;9.142;2023-09-12T06:35:43;20.10;1.00
46438;DHT22;32137;48.728;9.142;2023-09-12T06:38:08;20.10;1.00
46438;DHT22;32137;48.728;9.142;2023-09-12T06:40:34;20.20;1.00
46438;DHT22;32137;48.728;9.142;2023-09-12T06:42:59;20.20;1.00
46438;DHT22;32137;48.728;9.142;2023-09-12T06:45:24;20.20;1.00
46438;DHT22;32137;48.728;9.142;2023-09-12T06:47:50;20.30;1.00
46438;DHT22;32137;48.728;9.142;2023-09-12T06:50:15;20.30;1.00
46438;DHT22;32137;48.728;9.142;2023-09-12T06:52:41;20.30;1.00
46438;DHT22;32137;48.728;9.142;2023-09-12T06:55:06;20.30;1.00
46438;DHT22;32137;48.728;9.142;2023-09-12T06:57:32;20.30;1.00
46438;DHT22;32137;48.728;9.142;2023-09-12T06:59:58;20.30;1.00
46438;DHT22;32137;48.728;9.142;2023-09-12T07:02:23;20.30;1.00
46438;DHT22;32137;48.728;9.142;2023-09-12T07:04:49;20.30;1.00
46438;DHT22;32137;48.728;9.142;2023-09-12T07:07:14;20.30;1.00
46438;DHT22;32137;48.728;9.142;2023-09-12T07:09:39;20.40;1.00
46438;DHT22;32137;48.728;9.142;2023-09-12T07:12:05;20.40;1.00
46438;DHT22;32137;48.728;9.142;2023-09-12T07:14:31;20.40;1.00
46438;DHT22;32137;48.728;9.142;2023-09-12T07:16:56;20.40;1.00
46438;DHT22;32137;48.728;9.142;2023-09-12T07:19:22;20.40;1.00
46438;DHT22;32137;48.728;9.142;2023-09-12T07:21:47;20.40;1.00
46438;DHT22;32137;48.728;9.142;2023-09-12T07:24:13;20.40;1.00
46438;DHT22;32137;48.728;9.142;2023-09-12T07:26:38;20.40;1.00
46438;DHT22;32137;48.728;9.142;2023-09-12T07:29:04;20.40;1.00
46438;DHT22;32137;48.728;9.142;2023-09-12T07:31:31;20.40;1.00
46438;DHT22;32137;48.728;9.142;2023-09-12T07:33:56;20.50;1.00
46438;DHT22;32137;48.728;9.142;2023-09-12T07:36:22;20.50;1.00
46438;DHT22;32137;48.728;9.142;2023-09-12T07:38:47;20.50;1.00
46438;DHT22;32137;48.728;9.142;2023-09-12T07:41:13;20.60;1.00
46438;DHT22;32137;48.728;9.142;2023-09-12T07:43:38;20.70;1.00
46438;DHT22;32137;48.728;9.142;2023-09-12T07:46:05;20.90;1.00
46438;DHT22;32137;48.728;9.142;2023-09-12T07:48:31;21.00;1.00
46438;DHT22;32137;48.728;9.142;2023-09-12T07:50:56;21.00;1.00
46438;DHT22;32137;48.728;9.142;2023-09-12T07:53:21;21.20;1.00
46438;DHT22;32137;48.728;9.142;2023-09-12T07:55:47;21.30;1.00
46438;DHT22;32137;48.728;9.142;2023-09-12T07:58:14;21.40;1.00
46438;DHT22;32137;48.728;9.142;2023-09-12T08:00:40;21.50;1.00
46438;DHT22;32137;48.728;9.142;2023-09-12T08:03:06;21.60;99.90
46438;DHT22;32137;48.728;9.142;2023-09-12T08:05:31;21.70;99.90
46438;DHT22;32137;48.728;9.142;2023-09-12T08:07:56;21.80;99.90
46438;DHT22;32137;48.728;9.142;2023-09-12T08:10:22;21.90;99.90
46438;DHT22;32137;48.728;9.142;2023-09-12T08:12:48;22.00;99.90
46438;DHT22;32137;48.728;9.142;2023-09-12T08:15:13;22.10;99.90
46438;DHT22;32137;48.728;9.142;2023-09-12T08:17:38;22.10;99.90
46438;DHT22;32137;48.728;9.142;2023-09-12T08:20:05;22.10;99.90
46438;DHT22;32137;48.728;9.142;2023-09-12T08:22:31;22.20;99.90
46438;DHT22;32137;48.728;9.142;2023-09-12T08:24:56;22.10;99.90
46438;DHT22;32137;48.728;9.142;2023-09-12T08:27:22;22.10;99.90
46438;DHT22;32137;48.728;9.142;2023-09-12T08:29:48;22.10;99.90
46438;DHT22;32137;48.728;9.142;2023-09-12T08:32:14;22.10;99.90
46438;DHT22;32137;48.728;9.142;2023-09-12T08:34:39;22.10;1.00
46438;DHT22;32137;48.728;9.142;2023-09-12T08:37:05;22.10;1.00
46438;DHT22;32137;48.728;9.142;2023-09-12T08:39:39;22.10;1.00
46438;DHT22;32137;48.728;9.142;2023-09-12T08:42:05;22.10;99.90
46438;DHT22;32137;48.728;9.142;2023-09-12T08:44:31;22.20;99.90
46438;DHT22;32137;48.728;9.142;2023-09-12T08:46:57;22.20;99.90
46438;DHT22;32137;48.728;9.142;2023-09-12T08:49:24;22.30;99.90
46438;DHT22;32137;48.728;9.142;2023-09-12T08:51:49;22.30;99.90
46438;DHT22;32137;48.728;9.142;2023-09-12T08:54:15;22.30;99.90
46438;DHT22;32137;48.728;9.142;2023-09-12T08:56:40;22.40;99.90
46438;DHT22;32137;48.728;9.142;2023-09-12T08:59:07;22.40;99.90
46438;DHT22;32137;48.728;9.142;2023-09-12T09:01:34;22.50;99.90
46438;DHT22;32137;48.728;9.142;2023-09-12T09:04:01;22.50;99.90
46438;DHT22;32137;48.728;9.142;2023-09-12T09:06:27;22.50;99.90
46438;DHT22;32137;48.728;9.142;2023-09-12T09:08:55;22.50;99.90
46438;DHT22;32137;48.728;9.142;2023-09-12T09:11:21;22.60;99.90
46438;DHT22;32137;48.728;9.142;2023-09-12T09:13:47;22.50;99.90
46438;DHT22;32137;48.728;9.142;2023-09-12T09:16:14;22.50;99.90
46438;DHT22;32137;48.728;9.142;2023-09-12T09:21:36;22.60;99.90
46438;DHT22;32137;48.728;9.142;2023-09-12T09:24:04;22.60;99.90
46438;DHT22;32137;48.728;9.142;2023-09-12T09:26:49;22.60;99.90
46438;DHT22;32137;48.728;9.142;2023-09-12T09:29:19;22.60;99.90
46438;DHT22;32137;48.728;9.142;2023-09-12T09:31:49;22.60;99.90
46438;DHT22;32137;48.728;9.142;2023-09-12T09:34:16;22.60;1.00
46438;DHT22;32137;48.728;9.142;2023-09-12T09:36:42;22.60;99.90
46438;DHT22;32137;48.728;9.142;2023-09-12T09:39:08;22.70;99.90
46438;DHT22;32137;48.728;9.142;2023-09-12T09:41:33;22.70;99.90
46438;DHT22;32137;48.728;9.142;2023-09-12T09:43:59;22.80;99.90
46438;DHT22;32137;48.728;9.142;2023-09-12T09:46:25;22.80;99.90
46438;DHT22;32137;48.728;9.142;2023-09-12T09:48:51;23.00;99.90
46438;DHT22;32137;48.728;9.142;2023-09-12T09:51:16;23.10;99.90
46438;DHT22;32137;48.728;9.142;2023-09-12T09:53:42;23.30;99.90
46438;DHT22;32137;48.728;9.142;2023-09-12T09:56:12;23.30;99.90
46438;DHT22;32137;48.728;9.142;2023-09-12T09:58:47;23.40;99.90
46438;DHT22;32137;48.728;9.142;2023-09-12T10:01:17;23.40;99.90
46438;DHT22;32137;48.728;9.142;2023-09-12T10:03:44;23.40;99.90
46438;DHT22;32137;48.728;9.142;2023-09-12T10:06:10;23.50;99.90
46438;DHT22;32137;48.728;9.142;2023-09-12T10:08:36;23.60;99.90
46438;DHT22;32137;48.728;9.142;2023-09-12T10:11:03;23.70;94.10
46438;DHT22;32137;48.728;9.142;2023-09-12T10:13:28;23.70;99.90
46438;DHT22;32137;48.728;9.142;2023-09-12T10:15:58;23.90;1.00
46438;DHT22;32137;48.728;9.142;2023-09-12T10:18:24;24.20;1.00
46438;DHT22;32137;48.728;9.142;2023-09-12T10:20:54;24.20;1.00
46438;DHT22;32137;48.728;9.142;2023-09-12T10:23:26;24.30;1.00
46438;DHT22;32137;48.728;9.142;2023-09-12T10:25:52;24.40;1.00
46438;DHT22;32137;48.728;9.142;2023-09-12T10:28:19;24.40;1.00
46438;DHT22;32137;48.728;9.142;2023-09-12T10:30:44;24.40;1.00
46438;DHT22;32137;48.728;9.142;2023-09-12T10:33:10;24.50;1.00
46438;DHT22;32137;48.728;9.142;2023-09-12T10:35:36;24.60;1.00
46438;DHT22;32137;48.728;9.142;2023-09-12T10:38:02;24.70;99.90
46438;DHT22;32137;48.728;9.142;2023-09-12T10:40:29;24.80;99.90
46438;DHT22;32137;48.728;9.142;2023-09-12T10:42:55;24.80;99.90
46438;DHT22;32137;48.728;9.142;2023-09-12T10:45:21;24.80;99.90
46438;DHT22;32137;48.728;9.142;2023-09-12T10:47:47;24.80;99.90
46438;DHT22;32137;48.728;9.142;2023-09-12T10:50:12;24.90;99.90
46438;DHT22;32137;48.728;9.142;2023-09-12T10:52:39;25.00;1.00
46438;DHT22;32137;48.728;9.142;2023-09-12T10:55:06;25.10;1.00
46438;DHT22;32137;48.728;9.142;2023-09-12T10:57:32;25.20;1.00
46438;DHT22;32137;48.728;9.142;2023-09-12T11:02:27;25.40;99.90
46438;DHT22;32137;48.728;9.142;2023-09-12T11:04:54;25.50;99.90
46438;DHT22;32137;48.728;9.142;2023-09-12T11:07:30;25.50;99.90
46438;DHT22;32137;48.728;9.142;2023-09-12T11:10:17;25.50;99.90
46438;DHT22;32137;48.728;9.142;2023-09-12T11:12:45;25.60;99.90
46438;DHT22;32137;48.728;9.142;2023-09-12T11:15:11;25.70;99.90
46438;DHT22;32137;48.728;9.142;2023-09-12T11:17:37;25.70;99.90
46438;DHT22;32137;48.728;9.142;2023-09-12T11:20:03;25.80;99.90
46438;DHT22;32137;48.728;9.142;2023-09-12T11:22:36;25.90;99.90
46438;DHT22;32137;48.728;9.142;2023-09-12T11:25:02;26.10;99.90
46438;DHT22;32137;48.728;9.142;2023-09-12T11:27:31;26.20;99.90
46438;DHT22;32137;48.728;9.142;2023-09-12T11:30:03;26.40;99.90
46438;DHT22;32137;48.728;9.142;2023-09-12T11:32:32;26.60;99.90
46438;DHT22;32137;48.728;9.142;2023-09-12T11:35:04;26.90;99.90
46438;DHT22;32137;48.728;9.142;2023-09-12T11:37:30;27.10;99.90
46438;DHT22;32137;48.728;9.142;2023-09-12T11:39:55;27.40;91.70
46438;DHT22;32137;48.728;9.142;2023-09-12T11:42:23;28.00;1.00
46438;DHT22;32137;48.728;9.142;2023-09-12T11:44:50;28.40;1.00
46438;DHT22;32137;48.728;9.142;2023-09-12T11:47:16;28.90;1.00
46438;DHT22;32137;48.728;9.142;2023-09-12T11:49:42;29.80;1.00
46438;DHT22;32137;48.728;9.142;2023-09-12T11:52:08;31.90;99.90
46438;DHT22;32137;48.728;9.142;2023-09-12T11:54:34;34.60;99.90
46438;DHT22;32137;48.728;9.142;2023-09-12T11:56:59;36.70;99.90
46438;DHT22;32137;48.728;9.142;2023-09-12T11:59:26;38.20;99.90
46438;DHT22;32137;48.728;9.142;2023-09-12T12:01:52;39.50;99.90
46438;DHT22;32137;48.728;9.142;2023-09-12T12:04:22;40.40;99.90
46438;DHT22;32137;48.728;9.142;2023-09-12T12:06:50;41.30;99.90
46438;DHT22;32137;48.728;9.142;2023-09-12T12:09:16;40.90;99.90
46438;DHT22;32137;48.728;9.142;2023-09-12T12:11:44;41.10;99.90
46438;DHT22;32137;48.728;9.142;2023-09-12T12:14:13;41.90;99.90
46438;DHT22;32137;48.728;9.142;2023-09-12T12:16:41;42.60;99.90
46438;DHT22;32137;48.728;9.142;2023-09-12T12:19:06;43.20;99.90
46438;DHT22;32137;48.728;9.142;2023-09-12T12:21:32;44.00;99.90
46438;DHT22;32137;48.728;9.142;2023-09-12T12:23:58;44.60;99.90
46438;DHT22;32137;48.728;9.142;2023-09-12T12:26:24;44.90;99.00
46438;DHT22;32137;48.728;9.142;2023-09-12T12:28:50;45.20;97.00
46438;DHT22;32137;48.728;9.142;2023-09-12T12:31:16;45.60;94.70
46438;DHT22;32137;48.728;9.142;2023-09-12T12:33:47;45.80;94.30
46438;DHT22;32137;48.728;9.142;2023-09-12T12:36:12;45.80;90.00
46438;DHT22;32137;48.728;9.142;2023-09-12T12:38:38;45.80;92.00
46438;DHT22;32137;48.728;9.142;2023-09-12T12:41:04;45.80;86.10
46438;DHT22;32137;48.728;9.142;2023-09-12T12:43:30;45.70;87.00
46438;DHT22;32137;48.728;9.142;2023-09-12T12:45:56;45.80;82.40
46438;DHT22;32137;48.728;9.142;2023-09-12T12:48:34;44.60;93.40
46438;DHT22;32137;48.728;9.142;2023-09-12T12:53:42;42.90;99.50
46438;DHT22;32137;48.728;9.142;2023-09-12T12:56:07;43.30;97.90
46438;DHT22;32137;48.728;9.142;2023-09-12T12:58:33;43.70;93.80
46438;DHT22;32137;48.728;9.142;2023-09-12T13:01:00;44.30;91.00
46438;DHT22;32137;48.728;9.142;2023-09-12T13:03:26;44.80;83.50
46438;DHT22;32137;48.728;9.142;2023-09-12T13:05:51;44.90;84.60
46438;DHT22;32137;48.728;9.142;2023-09-12T13:08:17;45.10;89.60
46438;DHT22;32137;48.728;9.142;2023-09-12T13:10:43;45.00;85.60
46438;DHT22;32137;48.728;9.142;2023-09-12T13:13:10;44.80;94.50
46438;DHT22;32137;48.728;9.142;2023-09-12T13:15:36;44.40;96.20
46438;DHT22;32137;48.728;9.142;2023-09-12T13:18:01;44.10;99.20
46438;DHT22;32137;48.728;9.142;2023-09-12T13:20:27;43.20;99.90
46438;DHT22;32137;48.728;9.142;2023-09-12T13:22:52;42.50;99.90
46438;DHT22;32137;48.728;9.142;2023-09-12T13:25:18;41.00;99.90
46438;DHT22;32137;48.728;9.142;2023-09-12T13:27:45;40.30;99.90
46438;DHT22;32137;48.728;9.142;2023-09-12T13:30:11;40.20;99.90
46438;DHT22;32137;48.728;9.142;2023-09-12T13:32:36;39.10;99.90
46438;DHT22;32137;48.728;9.142;2023-09-12T13:35:02;38.00;99.90
46438;DHT22;32137;48.728;9.142;2023-09-12T13:37:28;36.90;99.90
46438;DHT22;32137;48.728;9.142;2023-09-12T13:39:55;36.00;99.90
46438;DHT22;32137;48.728;9.142;2023-09-12T13:42:20;35.30;99.90
46438;DHT22;32137;48.728;9.142;2023-09-12T13:44:49;34.90;99.90
46438;DHT22;32137;48.728;9.142;2023-09-12T13:47:15;34.70;99.90
46438;DHT22;32137;48.728;9.142;2023-09-12T13:49:47;34.40;99.90
46438;DHT22;32137;48.728;9.142;2023-09-12T13:52:13;34.00;99.90
46438;DHT22;32137;48.728;9.142;2023-09-12T13:54:40;33.70;99.90
46438;DHT22;32137;48.728;9.142;2023-09-12T13:57:05;33.60;99.90
46438;DHT22;32137;48.728;9.142;2023-09-12T13:59:30;33.90;99.90
46438;DHT22;32137;48.728;9.142;2023-09-12T14:01:56;34.10;99.90
46438;DHT22;32137;48.728;9.142;2023-09-12T14:04:21;34.30;99.90
46438;DHT22;32137;48.728;9.142;2023-09-12T14:06:47;34.40;99.90
46438;DHT22;32137;48.728;9.142;2023-09-12T14:09:12;34.60;99.90
46438;DHT22;32137;48.728;9.142;2023-09-12T14:11:37;34.70;99.90
46438;DHT22;32137;48.728;9.142;2023-09-12T14:14:04;34.90;99.90
46438;DHT22;32137;48.728;9.142;2023-09-12T14:16:29;35.00;99.90
46438;DHT22;32137;48.728;9.142;2023-09-12T14:18:55;34.80;99.90
46438;DHT22;32137;48.728;9.142;2023-09-12T14:21:21;34.60;99.90
46438;DHT22;32137;48.728;9.142;2023-09-12T14:23:46;34.30;99.90
46438;DHT22;32137;48.728;9.142;2023-09-12T14:26:12;33.80;99.90
46438;DHT22;32137;48.728;9.142;2023-09-12T14:28:37;33.50;99.90
46438;DHT22;32137;48.728;9.142;2023-09-12T14:31:03;33.30;99.90
46438;DHT22;32137;48.728;9.142;2023-09-12T14:33:30;33.00;99.90
46438;DHT22;32137;48.728;9.142;2023-09-12T14:35:56;32.80;99.90
46438;DHT22;32137;48.728;9.142;2023-09-12T14:38:21;32.50;99.90
46438;DHT22;32137;48.728;9.142;2023-09-12T14:40:46;32.30;99.90
46438;DHT22;32137;48.728;9.142;2023-09-12T14:43:12;32.10;99.90
46438;DHT22;32137;48.728;9.142;2023-09-12T14:45:38;31.90;99.90
46438;DHT22;32137;48.728;9.142;2023-09-12T14:48:04;31.70;99.90
46438;DHT22;32137;48.728;9.142;2023-09-12T14:50:29;31.50;99.90
46438;DHT22;32137;48.728;9.142;2023-09-12T14:52:56;31.40;99.90
46438;DHT22;32137;48.728;9.142;2023-09-12T14:55:21;31.30;99.90
46438;DHT22;32137;48.728;9.142;2023-09-12T14:57:47;31.20;99.90
46438;DHT22;32137;48.728;9.142;2023-09-12T15:00:13;31.10;99.90
46438;DHT22;32137;48.728;9.142;2023-09-12T15:02:38;31.10;99.90
46438;DHT22;32137;48.728;9.142;2023-09-12T15:05:04;31.10;99.90
46438;DHT22;32137;48.728;9.142;2023-09-12T15:07:30;31.10;99.90
46438;DHT22;32137;48.728;9.142;2023-09-12T15:09:56;31.10;99.90
46438;DHT22;32137;48.728;9.142;2023-09-12T15:12:21;31.10;99.90
46438;DHT22;32137;48.728;9.142;2023-09-12T15:14:46;31.10;99.90
46438;DHT22;32137;48.728;9.142;2023-09-12T15:17:12;31.10;99.90
46438;DHT22;32137;48.728;9.142;2023-09-12T15:19:37;31.30;99.90
46438;DHT22;32137;48.728;9.142;2023-09-12T15:22:03;31.40;99.90
46438;DHT22;32137;48.728;9.142;2023-09-12T15:24:28;31.40;99.90
46438;DHT22;32137;48.728;9.142;2023-09-12T15:26:54;31.30;99.90
46438;DHT22;32137;48.728;9.142;2023-09-12T15:29:19;31.10;99.90
46438;DHT22;32137;48.728;9.142;2023-09-12T15:31:45;31.10;99.90
46438;DHT22;32137;48.728;9.142;2023-09-12T15:34:10;30.90;99.90
46438;DHT22;32137;48.728;9.142;2023-09-12T15:36:39;30.70;99.90
46438;DHT22;32137;48.728;9.142;2023-09-12T15:39:06;30.60;99.90
46438;DHT22;32137;48.728;9.142;2023-09-12T15:41:31;30.40;99.90
46438;DHT22;32137;48.728;9.142;2023-09-12T15:43:57;30.30;99.90